sensor_id;sensor_type;location;lat;lon;timestamp;P1;durP1;ratioP1;P2;durP2;ratioP2
69485;SDS011;56677;51.710;5.366;2022-12-24T07:51:23;5.25;;;2.47;;
69485;SDS011;56677;51.710;5.366;2022-12-24T07:53:48;7.00;;;2.50;;
69485;SDS011;56677;51.710;5.366;2022-12-24T07:56:14;5.07;;;2.50;;
69485;SDS011;56677;51.710;5.366;2022-12-24T07:58:39;6.33;;;2.33;;
69485;SDS011;56677;51.710;5.366;2022-12-24T08:01:04;4.50;;;2.20;;
69485;SDS011;56677;51.710;5.366;2022-12-24T08:03:29;4.87;;;1.90;;
69485;SDS011;56677;51.710;5.366;2022-12-24T08:05:54;5.28;;;2.25;;
69485;SDS011;56677;51.710;5.366;2022-12-24T08:08:19;6.38;;;2.28;;
69485;SDS011;56677;51.710;5.366;2022-12-24T08:10:45;5.25;;;1.90;;
69485;SDS011;56677;51.710;5.366;2022-12-24T08:13:10;6.90;;;1.97;;
69485;SDS011;56677;51.710;5.366;2022-12-24T08:15:35;6.97;;;2.20;;
69485;SDS011;56677;51.710;5.366;2022-12-24T08:18:00;7.77;;;2.30;;
69485;SDS011;56677;51.710;5.366;2022-12-24T08:20:25;6.25;;;2.42;;
69485;SDS011;56677;51.710;5.366;2022-12-24T08:22:51;7.13;;;2.20;;
69485;SDS011;56677;51.710;5.366;2022-12-24T08:25:16;5.67;;;2.37;;
69485;SDS011;56677;51.710;5.366;2022-12-24T08:27:41;7.80;;;2.45;;
69485;SDS011;56677;51.710;5.366;2022-12-24T08:30:07;8.05;;;2.70;;
69485;SDS011;56677;51.710;5.366;2022-12-24T08:32:32;7.40;;;2.20;;
69485;SDS011;56677;51.710;5.366;2022-12-24T08:34:57;5.88;;;2.20;;
69485;SDS011;56677;51.710;5.366;2022-12-24T08:37:22;7.35;;;2.20;;
69485;SDS011;56677;51.710;5.366;2022-12-24T08:39:47;8.67;;;2.63;;
69485;SDS011;56677;51.710;5.366;2022-12-24T08:42:12;6.45;;;2.40;;
69485;SDS011;56677;51.710;5.366;2022-12-24T08:44:37;6.38;;;2.05;;
69485;SDS011;56677;51.710;5.366;2022-12-24T08:47:03;6.60;;;2.30;;
69485;SDS011;56677;51.710;5.366;2022-12-24T08:49:28;5.70;;;1.87;;
69485;SDS011;56677;51.710;5.366;2022-12-24T08:51:53;5.05;;;2.58;;
69485;SDS011;56677;51.710;5.366;2022-12-24T08:54:18;7.75;;;2.22;;
69485;SDS011;56677;51.710;5.366;2022-12-24T08:56:43;5.43;;;2.40;;
69485;SDS011;56677;51.710;5.366;2022-12-24T08:59:09;6.72;;;2.17;;
69485;SDS011;56677;51.710;5.366;2022-12-24T09:01:34;5.60;;;2.20;;
69485;SDS011;56677;51.710;5.366;2022-12-24T09:04:00;10.15;;;2.30;;
69485;SDS011;56677;51.710;5.366;2022-12-24T09:06:25;6.32;;;2.30;;
69485;SDS011;56677;51.710;5.366;2022-12-24T09:08:50;4.63;;;1.70;;
69485;SDS011;56677;51.710;5.366;2022-12-24T09:11:16;6.50;;;2.20;;
69485;SDS011;56677;51.710;5.366;2022-12-24T09:13:41;5.25;;;1.83;;
69485;SDS011;56677;51.710;5.366;2022-12-24T09:16:06;7.72;;;2.47;;
69485;SDS011;56677;51.710;5.366;2022-12-24T09:18:32;8.30;;;2.27;;
69485;SDS011;56677;51.710;5.366;2022-12-24T09:20:57;6.45;;;2.15;;
69485;SDS011;56677;51.710;5.366;2022-12-24T09:23:23;7.35;;;2.03;;
69485;SDS011;56677;51.710;5.366;2022-12-24T09:25:48;4.75;;;1.95;;
69485;SDS011;56677;51.710;5.366;2022-12-24T09:28:13;5.57;;;1.98;;
69485;SDS011;56677;51.710;5.366;2022-12-24T09:30:38;5.90;;;2.30;;
69485;SDS011;56677;51.710;5.366;2022-12-24T09:33:03;7.13;;;2.28;;
69485;SDS011;56677;51.710;5.366;2022-12-24T09:35:28;8.20;;;2.00;;
69485;SDS011;56677;51.710;5.366;2022-12-24T09:37:53;6.22;;;2.53;;
69485;SDS011;56677;51.710;5.366;2022-12-24T09:40:21;5.90;;;2.10;;
69485;SDS011;56677;51.710;5.366;2022-12-24T09:42:50;5.22;;;1.77;;
69485;SDS011;56677;51.710;5.366;2022-12-24T09:45:22;6.90;;;2.40;;
69485;SDS011;56677;51.710;5.366;2022-12-24T09:48:01;6.53;;;2.30;;
69485;SDS011;56677;51.710;5.366;2022-12-24T09:52:52;9.70;;;2.08;;
69485;SDS011;56677;51.710;5.366;2022-12-24T09:57:43;7.07;;;2.08;;
69485;SDS011;56677;51.710;5.366;2022-12-24T10:00:31;5.63;;;2.10;;
69485;SDS011;56677;51.710;5.366;2022-12-24T10:02:55;7.22;;;2.22;;
69485;SDS011;56677;51.710;5.366;2022-12-24T10:10:41;6.78;;;2.35;;
69485;SDS011;56677;51.710;5.366;2022-12-24T10:13:21;7.05;;;2.95;;
69485;SDS011;56677;51.710;5.366;2022-12-24T10:18:34;5.88;;;1.77;;
69485;SDS011;56677;51.710;5.366;2022-12-24T10:21:12;5.43;;;2.20;;
69485;SDS011;56677;51.710;5.366;2022-12-24T10:26:06;8.73;;;2.28;;
69485;SDS011;56677;51.710;5.366;2022-12-24T10:31:02;8.17;;;2.83;;
69485;SDS011;56677;51.710;5.366;2022-12-24T10:33:30;8.27;;;2.55;;
69485;SDS011;56677;51.710;5.366;2022-12-24T10:35:56;10.48;;;2.70;;
69485;SDS011;56677;51.710;5.366;2022-12-24T10:38:22;10.60;;;2.80;;
69485;SDS011;56677;51.710;5.366;2022-12-24T10:40:47;8.85;;;2.78;;
69485;SDS011;56677;51.710;5.366;2022-12-24T10:43:24;9.20;;;2.50;;
69485;SDS011;56677;51.710;5.366;2022-12-24T10:45:50;10.65;;;2.60;;
69485;SDS011;56677;51.710;5.366;2022-12-24T10:48:24;7.88;;;2.55;;
69485;SDS011;56677;51.710;5.366;2022-12-24T10:50:53;7.78;;;2.50;;
69485;SDS011;56677;51.710;5.366;2022-12-24T10:55:47;10.40;;;2.47;;
69485;SDS011;56677;51.710;5.366;2022-12-24T10:58:17;7.55;;;2.33;;
69485;SDS011;56677;51.710;5.366;2022-12-24T11:00:48;8.57;;;2.33;;
69485;SDS011;56677;51.710;5.366;2022-12-24T11:05:41;7.60;;;2.60;;
69485;SDS011;56677;51.710;5.366;2022-12-24T11:10:39;9.25;;;2.78;;
69485;SDS011;56677;51.710;5.366;2022-12-24T11:13:14;8.53;;;2.97;;
69485;SDS011;56677;51.710;5.366;2022-12-24T11:15:44;5.05;;;2.15;;
69485;SDS011;56677;51.710;5.366;2022-12-24T11:18:12;6.37;;;2.83;;
69485;SDS011;56677;51.710;5.366;2022-12-24T11:20:38;9.48;;;2.42;;
69485;SDS011;56677;51.710;5.366;2022-12-24T11:23:03;10.07;;;2.23;;
69485;SDS011;56677;51.710;5.366;2022-12-24T11:25:29;9.13;;;2.63;;
69485;SDS011;56677;51.710;5.366;2022-12-24T11:27:55;12.43;;;2.80;;
69485;SDS011;56677;51.710;5.366;2022-12-24T11:32:46;7.03;;;1.93;;
69485;SDS011;56677;51.710;5.366;2022-12-24T11:35:21;6.20;;;2.40;;
69485;SDS011;56677;51.710;5.366;2022-12-24T11:37:47;8.82;;;2.65;;
69485;SDS011;56677;51.710;5.366;2022-12-24T11:40:19;8.37;;;2.33;;
69485;SDS011;56677;51.710;5.366;2022-12-24T11:42:45;8.32;;;2.45;;
69485;SDS011;56677;51.710;5.366;2022-12-24T11:47:39;6.85;;;2.40;;
69485;SDS011;56677;51.710;5.366;2022-12-24T11:50:27;8.75;;;2.42;;
69485;SDS011;56677;51.710;5.366;2022-12-24T11:52:58;6.53;;;2.10;;
69485;SDS011;56677;51.710;5.366;2022-12-24T11:55:43;5.97;;;2.33;;
69485;SDS011;56677;51.710;5.366;2022-12-24T12:00:49;7.47;;;2.38;;
69485;SDS011;56677;51.710;5.366;2022-12-24T12:05:49;6.90;;;2.15;;
69485;SDS011;56677;51.710;5.366;2022-12-24T12:08:16;5.97;;;2.20;;
69485;SDS011;56677;51.710;5.366;2022-12-24T12:10:42;7.95;;;3.10;;
69485;SDS011;56677;51.710;5.366;2022-12-24T12:13:12;6.28;;;2.40;;
69485;SDS011;56677;51.710;5.366;2022-12-24T12:16:00;9.17;;;2.80;;
69485;SDS011;56677;51.710;5.366;2022-12-24T12:18:28;6.97;;;2.58;;
69485;SDS011;56677;51.710;5.366;2022-12-24T12:21:00;6.35;;;2.20;;
69485;SDS011;56677;51.710;5.366;2022-12-24T12:23:29;6.50;;;2.40;;
69485;SDS011;56677;51.710;5.366;2022-12-24T12:26:03;7.10;;;1.95;;
69485;SDS011;56677;51.710;5.366;2022-12-24T12:33:37;7.57;;;2.23;;
69485;SDS011;56677;51.710;5.366;2022-12-24T12:36:03;5.55;;;1.95;;
69485;SDS011;56677;51.710;5.366;2022-12-24T12:38:28;8.20;;;2.47;;
69485;SDS011;56677;51.710;5.366;2022-12-24T12:48:21;5.85;;;2.20;;
69485;SDS011;56677;51.710;5.366;2022-12-24T12:58:38;7.22;;;2.20;;
69485;SDS011;56677;51.710;5.366;2022-12-24T13:01:11;6.88;;;2.17;;
69485;SDS011;56677;51.710;5.366;2022-12-24T13:03:55;11.35;;;3.08;;
69485;SDS011;56677;51.710;5.366;2022-12-24T13:11:24;8.73;;;3.22;;
69485;SDS011;56677;51.710;5.366;2022-12-24T13:16:45;8.07;;;3.53;;
69485;SDS011;56677;51.710;5.366;2022-12-24T13:19:20;9.07;;;3.67;;
69485;SDS011;56677;51.710;5.366;2022-12-24T13:21:47;10.00;;;3.30;;
69485;SDS011;56677;51.710;5.366;2022-12-24T13:24:17;11.17;;;3.60;;
69485;SDS011;56677;51.710;5.366;2022-12-24T13:26:58;8.27;;;3.50;;
69485;SDS011;56677;51.710;5.366;2022-12-24T13:32:36;9.38;;;3.25;;
69485;SDS011;56677;51.710;5.366;2022-12-24T13:35:03;10.10;;;3.67;;
69485;SDS011;56677;51.710;5.366;2022-12-24T13:37:34;8.02;;;3.35;;
69485;SDS011;56677;51.710;5.366;2022-12-24T13:47:52;7.60;;;3.20;;
69485;SDS011;56677;51.710;5.366;2022-12-24T13:50:40;9.10;;;3.40;;
69485;SDS011;56677;51.710;5.366;2022-12-24T13:53:03;8.75;;;2.95;;
69485;SDS011;56677;51.710;5.366;2022-12-24T13:55:29;10.73;;;3.13;;
69485;SDS011;56677;51.710;5.366;2022-12-24T13:57:56;8.13;;;2.90;;
69485;SDS011;56677;51.710;5.366;2022-12-24T14:02:55;7.45;;;2.85;;
69485;SDS011;56677;51.710;5.366;2022-12-24T14:07:55;8.57;;;3.00;;
69485;SDS011;56677;51.710;5.366;2022-12-24T14:10:25;6.93;;;2.67;;
69485;SDS011;56677;51.710;5.366;2022-12-24T14:12:51;9.60;;;2.80;;
69485;SDS011;56677;51.710;5.366;2022-12-24T14:18:00;8.57;;;3.03;;
69485;SDS011;56677;51.710;5.366;2022-12-24T14:20:25;8.13;;;2.83;;
69485;SDS011;56677;51.710;5.366;2022-12-24T14:22:51;6.35;;;2.42;;
69485;SDS011;56677;51.710;5.366;2022-12-24T14:25:20;10.80;;;3.00;;
69485;SDS011;56677;51.710;5.366;2022-12-24T14:27:46;5.93;;;2.50;;
69485;SDS011;56677;51.710;5.366;2022-12-24T14:32:41;7.47;;;2.75;;
69485;SDS011;56677;51.710;5.366;2022-12-24T14:37:35;8.95;;;2.40;;
69485;SDS011;56677;51.710;5.366;2022-12-24T14:40:00;14.03;;;3.27;;
69485;SDS011;56677;51.710;5.366;2022-12-24T14:42:40;10.00;;;3.07;;
69485;SDS011;56677;51.710;5.366;2022-12-24T14:45:16;7.07;;;2.50;;
69485;SDS011;56677;51.710;5.366;2022-12-24T14:47:48;8.43;;;2.72;;
69485;SDS011;56677;51.710;5.366;2022-12-24T14:50:29;8.98;;;2.30;;
69485;SDS011;56677;51.710;5.366;2022-12-24T14:55:43;7.82;;;2.70;;
69485;SDS011;56677;51.710;5.366;2022-12-24T14:58:20;8.00;;;2.65;;
69485;SDS011;56677;51.710;5.366;2022-12-24T15:00:46;8.02;;;2.95;;
69485;SDS011;56677;51.710;5.366;2022-12-24T15:03:13;8.27;;;2.40;;
69485;SDS011;56677;51.710;5.366;2022-12-24T15:05:38;8.60;;;2.75;;
69485;SDS011;56677;51.710;5.366;2022-12-24T15:08:07;8.60;;;2.33;;
69485;SDS011;56677;51.710;5.366;2022-12-24T15:10:37;9.02;;;3.47;;
69485;SDS011;56677;51.710;5.366;2022-12-24T15:13:07;12.05;;;2.60;;
69485;SDS011;56677;51.710;5.366;2022-12-24T15:15:34;13.25;;;2.90;;
69485;SDS011;56677;51.710;5.366;2022-12-24T15:17:59;5.53;;;2.30;;
69485;SDS011;56677;51.710;5.366;2022-12-24T15:20:26;6.88;;;2.35;;
69485;SDS011;56677;51.710;5.366;2022-12-24T15:22:53;10.97;;;2.53;;
69485;SDS011;56677;51.710;5.366;2022-12-24T15:25:20;13.48;;;3.17;;
69485;SDS011;56677;51.710;5.366;2022-12-24T15:27:45;10.48;;;3.20;;
69485;SDS011;56677;51.710;5.366;2022-12-24T15:30:13;10.13;;;2.60;;
69485;SDS011;56677;51.710;5.366;2022-12-24T15:32:38;12.98;;;2.78;;
69485;SDS011;56677;51.710;5.366;2022-12-24T15:35:04;7.20;;;2.10;;
69485;SDS011;56677;51.710;5.366;2022-12-24T15:37:30;14.90;;;3.03;;
69485;SDS011;56677;51.710;5.366;2022-12-24T15:40:08;11.05;;;2.30;;
69485;SDS011;56677;51.710;5.366;2022-12-24T15:42:34;6.33;;;2.17;;
69485;SDS011;56677;51.710;5.366;2022-12-24T15:45:01;8.23;;;2.78;;
69485;SDS011;56677;51.710;5.366;2022-12-24T15:47:32;7.73;;;2.30;;
69485;SDS011;56677;51.710;5.366;2022-12-24T15:49:58;6.30;;;2.22;;
69485;SDS011;56677;51.710;5.366;2022-12-24T15:52:23;7.33;;;2.10;;
69485;SDS011;56677;51.710;5.366;2022-12-24T15:54:49;10.88;;;2.75;;
69485;SDS011;56677;51.710;5.366;2022-12-24T15:57:21;7.87;;;2.77;;
69485;SDS011;56677;51.710;5.366;2022-12-24T15:59:53;8.05;;;2.60;;
69485;SDS011;56677;51.710;5.366;2022-12-24T16:07:58;8.02;;;2.65;;
69485;SDS011;56677;51.710;5.366;2022-12-24T16:10:24;6.03;;;2.38;;
69485;SDS011;56677;51.710;5.366;2022-12-24T16:12:49;9.27;;;2.83;;
69485;SDS011;56677;51.710;5.366;2022-12-24T16:15:14;7.55;;;2.55;;
69485;SDS011;56677;51.710;5.366;2022-12-24T16:17:39;6.77;;;2.50;;
69485;SDS011;56677;51.710;5.366;2022-12-24T16:20:05;8.25;;;2.60;;
69485;SDS011;56677;51.710;5.366;2022-12-24T16:22:31;5.87;;;2.33;;
69485;SDS011;56677;51.710;5.366;2022-12-24T16:24:57;7.83;;;2.63;;
69485;SDS011;56677;51.710;5.366;2022-12-24T16:27:22;6.13;;;2.00;;
69485;SDS011;56677;51.710;5.366;2022-12-24T16:29:48;5.80;;;2.30;;
69485;SDS011;56677;51.710;5.366;2022-12-24T16:32:32;5.78;;;2.50;;
69485;SDS011;56677;51.710;5.366;2022-12-24T16:34:58;8.60;;;2.78;;
69485;SDS011;56677;51.710;5.366;2022-12-24T16:37:23;6.77;;;2.37;;
69485;SDS011;56677;51.710;5.366;2022-12-24T16:39:49;7.13;;;2.50;;
69485;SDS011;56677;51.710;5.366;2022-12-24T16:42:14;7.10;;;2.40;;
69485;SDS011;56677;51.710;5.366;2022-12-24T16:44:39;7.80;;;2.75;;
69485;SDS011;56677;51.710;5.366;2022-12-24T16:47:04;8.23;;;2.13;;
69485;SDS011;56677;51.710;5.366;2022-12-24T16:49:30;7.97;;;2.75;;
69485;SDS011;56677;51.710;5.366;2022-12-24T16:51:55;7.38;;;2.80;;
69485;SDS011;56677;51.710;5.366;2022-12-24T16:54:20;9.27;;;3.05;;
69485;SDS011;56677;51.710;5.366;2022-12-24T16:56:45;7.65;;;2.60;;
69485;SDS011;56677;51.710;5.366;2022-12-24T16:59:20;8.82;;;3.00;;
69485;SDS011;56677;51.710;5.366;2022-12-24T17:01:46;10.80;;;2.67;;
69485;SDS011;56677;51.710;5.366;2022-12-24T17:04:11;8.90;;;2.75;;
69485;SDS011;56677;51.710;5.366;2022-12-24T17:06:37;7.00;;;2.83;;
69485;SDS011;56677;51.710;5.366;2022-12-24T17:09:02;9.27;;;2.73;;
69485;SDS011;56677;51.710;5.366;2022-12-24T17:11:27;13.17;;;3.70;;
69485;SDS011;56677;51.710;5.366;2022-12-24T17:13:52;8.18;;;2.58;;
69485;SDS011;56677;51.710;5.366;2022-12-24T17:16:17;6.60;;;2.42;;
69485;SDS011;56677;51.710;5.366;2022-12-24T17:18:43;7.35;;;2.78;;
69485;SDS011;56677;51.710;5.366;2022-12-24T17:21:08;8.45;;;2.70;;
69485;SDS011;56677;51.710;5.366;2022-12-24T17:23:33;6.30;;;2.67;;
69485;SDS011;56677;51.710;5.366;2022-12-24T17:25:58;9.40;;;3.10;;
69485;SDS011;56677;51.710;5.366;2022-12-24T17:28:23;10.53;;;2.53;;
69485;SDS011;56677;51.710;5.366;2022-12-24T17:30:49;8.70;;;2.80;;
69485;SDS011;56677;51.710;5.366;2022-12-24T17:33:14;7.78;;;2.40;;
69485;SDS011;56677;51.710;5.366;2022-12-24T17:35:39;6.95;;;2.80;;
69485;SDS011;56677;51.710;5.366;2022-12-24T17:38:05;9.50;;;2.35;;
69485;SDS011;56677;51.710;5.366;2022-12-24T17:40:30;7.63;;;2.63;;
69485;SDS011;56677;51.710;5.366;2022-12-24T17:42:55;8.70;;;2.75;;
69485;SDS011;56677;51.710;5.366;2022-12-24T17:45:20;8.50;;;2.30;;
69485;SDS011;56677;51.710;5.366;2022-12-24T17:47:45;10.63;;;2.80;;
69485;SDS011;56677;51.710;5.366;2022-12-24T17:50:10;7.25;;;2.67;;
69485;SDS011;56677;51.710;5.366;2022-12-24T17:52:35;7.38;;;3.10;;
69485;SDS011;56677;51.710;5.366;2022-12-24T17:55:00;12.00;;;3.45;;
69485;SDS011;56677;51.710;5.366;2022-12-24T17:57:26;7.97;;;2.80;;
69485;SDS011;56677;51.710;5.366;2022-12-24T17:59:51;7.97;;;3.13;;
69485;SDS011;56677;51.710;5.366;2022-12-24T18:02:16;6.50;;;3.10;;
69485;SDS011;56677;51.710;5.366;2022-12-24T18:04:41;10.10;;;3.78;;
69485;SDS011;56677;51.710;5.366;2022-12-24T18:07:06;8.57;;;3.17;;
69485;SDS011;56677;51.710;5.366;2022-12-24T18:09:31;7.53;;;3.33;;
69485;SDS011;56677;51.710;5.366;2022-12-24T18:11:56;8.13;;;3.73;;
69485;SDS011;56677;51.710;5.366;2022-12-24T18:14:22;9.27;;;3.47;;
69485;SDS011;56677;51.710;5.366;2022-12-24T18:16:47;7.57;;;3.23;;
69485;SDS011;56677;51.710;5.366;2022-12-24T18:19:12;10.90;;;3.45;;
69485;SDS011;56677;51.710;5.366;2022-12-24T18:21:38;7.25;;;3.50;;
69485;SDS011;56677;51.710;5.366;2022-12-24T18:24:03;10.87;;;3.73;;
69485;SDS011;56677;51.710;5.366;2022-12-24T18:26:29;7.20;;;3.50;;
69485;SDS011;56677;51.710;5.366;2022-12-24T18:28:56;7.80;;;3.50;;
69485;SDS011;56677;51.710;5.366;2022-12-24T18:31:21;7.15;;;3.83;;
69485;SDS011;56677;51.710;5.366;2022-12-24T18:33:48;8.93;;;3.30;;
69485;SDS011;56677;51.710;5.366;2022-12-24T18:36:16;8.68;;;3.45;;
69485;SDS011;56677;51.710;5.366;2022-12-24T18:38:41;7.88;;;3.90;;
69485;SDS011;56677;51.710;5.366;2022-12-24T18:41:10;8.52;;;3.42;;
69485;SDS011;56677;51.710;5.366;2022-12-24T18:43:36;7.83;;;3.87;;
69485;SDS011;56677;51.710;5.366;2022-12-24T18:46:05;8.95;;;3.67;;
69485;SDS011;56677;51.710;5.366;2022-12-24T18:48:30;10.05;;;3.60;;
69485;SDS011;56677;51.710;5.366;2022-12-24T18:50:55;8.20;;;3.38;;
69485;SDS011;56677;51.710;5.366;2022-12-24T18:53:21;11.37;;;3.93;;
69485;SDS011;56677;51.710;5.366;2022-12-24T18:55:46;7.50;;;3.43;;
69485;SDS011;56677;51.710;5.366;2022-12-24T18:58:11;9.52;;;3.15;;
69485;SDS011;56677;51.710;5.366;2022-12-24T19:00:36;8.85;;;3.40;;
69485;SDS011;56677;51.710;5.366;2022-12-24T19:03:01;7.50;;;3.60;;
69485;SDS011;56677;51.710;5.366;2022-12-24T19:05:26;5.90;;;3.07;;
69485;SDS011;56677;51.710;5.366;2022-12-24T19:07:51;7.90;;;3.30;;
69485;SDS011;56677;51.710;5.366;2022-12-24T19:10:16;7.45;;;3.13;;
69485;SDS011;56677;51.710;5.366;2022-12-24T19:12:42;7.85;;;2.70;;
69485;SDS011;56677;51.710;5.366;2022-12-24T19:15:07;6.70;;;3.28;;
69485;SDS011;56677;51.710;5.366;2022-12-24T19:17:32;5.83;;;2.73;;
69485;SDS011;56677;51.710;5.366;2022-12-24T19:19:57;6.63;;;3.42;;
69485;SDS011;56677;51.710;5.366;2022-12-24T19:22:24;6.88;;;3.30;;
69485;SDS011;56677;51.710;5.366;2022-12-24T19:24:49;7.97;;;3.60;;
69485;SDS011;56677;51.710;5.366;2022-12-24T19:27:14;7.27;;;3.30;;
69485;SDS011;56677;51.710;5.366;2022-12-24T19:29:39;5.88;;;2.97;;
69485;SDS011;56677;51.710;5.366;2022-12-24T19:32:04;6.75;;;3.13;;
69485;SDS011;56677;51.710;5.366;2022-12-24T19:34:30;7.50;;;3.70;;
69485;SDS011;56677;51.710;5.366;2022-12-24T19:36:55;8.33;;;3.43;;
69485;SDS011;56677;51.710;5.366;2022-12-24T19:39:20;7.95;;;3.20;;
69485;SDS011;56677;51.710;5.366;2022-12-24T19:41:45;6.10;;;3.25;;
69485;SDS011;56677;51.710;5.366;2022-12-24T19:44:10;7.50;;;3.38;;
69485;SDS011;56677;51.710;5.366;2022-12-24T19:46:35;6.25;;;3.05;;
69485;SDS011;56677;51.710;5.366;2022-12-24T19:49:02;6.40;;;3.88;;
69485;SDS011;56677;51.710;5.366;2022-12-24T19:51:27;6.55;;;3.47;;
69485;SDS011;56677;51.710;5.366;2022-12-24T19:53:56;6.20;;;3.33;;
69485;SDS011;56677;51.710;5.366;2022-12-24T19:56:21;7.53;;;3.45;;
69485;SDS011;56677;51.710;5.366;2022-12-24T19:58:47;8.33;;;3.90;;
69485;SDS011;56677;51.710;5.366;2022-12-24T20:01:16;4.82;;;2.67;;
69485;SDS011;56677;51.710;5.366;2022-12-24T20:03:41;4.73;;;2.97;;
69485;SDS011;56677;51.710;5.366;2022-12-24T20:06:07;9.32;;;3.30;;
69485;SDS011;56677;51.710;5.366;2022-12-24T20:08:32;6.80;;;3.57;;
69485;SDS011;56677;51.710;5.366;2022-12-24T20:10:57;9.68;;;3.50;;
69485;SDS011;56677;51.710;5.366;2022-12-24T20:13:22;6.75;;;3.72;;
69485;SDS011;56677;51.710;5.366;2022-12-24T20:15:47;7.73;;;3.53;;
69485;SDS011;56677;51.710;5.366;2022-12-24T20:18:12;8.05;;;3.25;;
69485;SDS011;56677;51.710;5.366;2022-12-24T20:20:38;6.23;;;3.13;;
69485;SDS011;56677;51.710;5.366;2022-12-24T20:23:03;6.50;;;2.60;;
69485;SDS011;56677;51.710;5.366;2022-12-24T20:25:29;5.20;;;2.60;;
69485;SDS011;56677;51.710;5.366;2022-12-24T20:27:54;6.23;;;3.17;;
69485;SDS011;56677;51.710;5.366;2022-12-24T20:30:19;8.90;;;3.50;;
69485;SDS011;56677;51.710;5.366;2022-12-24T20:32:45;5.50;;;2.80;;
69485;SDS011;56677;51.710;5.366;2022-12-24T20:35:10;7.75;;;3.25;;
69485;SDS011;56677;51.710;5.366;2022-12-24T20:37:35;6.18;;;3.20;;
69485;SDS011;56677;51.710;5.366;2022-12-24T20:40:00;7.00;;;2.90;;
69485;SDS011;56677;51.710;5.366;2022-12-24T20:42:25;7.43;;;3.20;;
69485;SDS011;56677;51.710;5.366;2022-12-24T20:44:51;8.75;;;3.40;;
69485;SDS011;56677;51.710;5.366;2022-12-24T20:47:16;6.43;;;3.50;;
69485;SDS011;56677;51.710;5.366;2022-12-24T20:49:41;6.82;;;2.75;;
69485;SDS011;56677;51.710;5.366;2022-12-24T20:52:06;6.40;;;3.10;;
69485;SDS011;56677;51.710;5.366;2022-12-24T20:54:31;6.20;;;3.10;;
69485;SDS011;56677;51.710;5.366;2022-12-24T20:56:56;7.50;;;3.10;;
69485;SDS011;56677;51.710;5.366;2022-12-24T20:59:21;5.55;;;2.90;;
69485;SDS011;56677;51.710;5.366;2022-12-24T21:01:47;6.97;;;3.45;;
69485;SDS011;56677;51.710;5.366;2022-12-24T21:04:12;6.88;;;3.55;;
69485;SDS011;56677;51.710;5.366;2022-12-24T21:06:37;8.23;;;2.95;;
69485;SDS011;56677;51.710;5.366;2022-12-24T21:09:03;10.67;;;3.80;;
69485;SDS011;56677;51.710;5.366;2022-12-24T21:11:28;12.90;;;3.78;;
69485;SDS011;56677;51.710;5.366;2022-12-24T21:13:53;11.15;;;4.30;;
69485;SDS011;56677;51.710;5.366;2022-12-24T21:16:18;16.83;;;5.33;;
69485;SDS011;56677;51.710;5.366;2022-12-24T21:18:44;12.80;;;4.33;;
69485;SDS011;56677;51.710;5.366;2022-12-24T21:21:09;13.55;;;5.10;;
69485;SDS011;56677;51.710;5.366;2022-12-24T21:23:34;9.57;;;4.88;;
69485;SDS011;56677;51.710;5.366;2022-12-24T21:25:59;12.02;;;4.47;;
69485;SDS011;56677;51.710;5.366;2022-12-24T21:28:25;9.80;;;3.87;;
69485;SDS011;56677;51.710;5.366;2022-12-24T21:30:50;9.50;;;4.20;;
69485;SDS011;56677;51.710;5.366;2022-12-24T21:33:15;9.38;;;3.53;;
69485;SDS011;56677;51.710;5.366;2022-12-24T21:35:40;8.18;;;3.35;;
69485;SDS011;56677;51.710;5.366;2022-12-24T21:38:05;8.63;;;3.40;;
69485;SDS011;56677;51.710;5.366;2022-12-24T21:40:30;10.15;;;3.72;;
69485;SDS011;56677;51.710;5.366;2022-12-24T21:42:55;7.65;;;3.58;;
69485;SDS011;56677;51.710;5.366;2022-12-24T21:45:21;9.65;;;3.70;;
69485;SDS011;56677;51.710;5.366;2022-12-24T21:47:46;8.75;;;3.30;;
69485;SDS011;56677;51.710;5.366;2022-12-24T21:50:11;9.55;;;3.83;;
69485;SDS011;56677;51.710;5.366;2022-12-24T21:52:36;7.38;;;3.20;;
